sensor_id;sensor_type;location;lat;lon;timestamp;temperature;humidity
45619;DHT22;31343;47.520;19.144;2023-03-14T00:00:20;8.00;92.60
45619;DHT22;31343;47.520;19.144;2023-03-14T00:02:45;8.00;92.00
45619;DHT22;31343;47.520;19.144;2023-03-14T00:05:11;8.00;91.80
45619;DHT22;31343;47.520;19.144;2023-03-14T00:07:38;8.00;91.80
45619;DHT22;31343;47.520;19.144;2023-03-14T00:10:07;8.00;92.50
45619;DHT22;31343;47.520;19.144;2023-03-14T00:12:33;8.00;92.00
45619;DHT22;31343;47.520;19.144;2023-03-14T00:14:59;8.00;92.10
45619;DHT22;31343;47.520;19.144;2023-03-14T00:17:26;8.00;92.00
45619;DHT22;31343;47.520;19.144;2023-03-14T00:19:52;8.00;91.70
45619;DHT22;31343;47.520;19.144;2023-03-14T00:22:19;8.00;91.80
45619;DHT22;31343;47.520;19.144;2023-03-14T00:24:45;8.10;91.70
45619;DHT22;31343;47.520;19.144;2023-03-14T00:27:11;8.10;91.70
45619;DHT22;31343;47.520;19.144;2023-03-14T00:29:37;8.20;91.60
45619;DHT22;31343;47.520;19.144;2023-03-14T00:32:03;8.20;91.30
45619;DHT22;31343;47.520;19.144;2023-03-14T00:34:30;8.20;91.30
45619;DHT22;31343;47.520;19.144;2023-03-14T00:36:56;8.30;91.30
45619;DHT22;31343;47.520;19.144;2023-03-14T00:39:22;8.30;91.40
45619;DHT22;31343;47.520;19.144;2023-03-14T00:41:47;8.20;91.30
45619;DHT22;31343;47.520;19.144;2023-03-14T00:44:18;8.30;91.40
45619;DHT22;31343;47.520;19.144;2023-03-14T00:46:44;8.20;91.40
45619;DHT22;31343;47.520;19.144;2023-03-14T00:49:09;8.20;91.30
45619;DHT22;31343;47.520;19.144;2023-03-14T00:51:35;8.20;91.20
45619;DHT22;31343;47.520;19.144;2023-03-14T00:54:01;8.20;91.70
45619;DHT22;31343;47.520;19.144;2023-03-14T00:56:26;8.20;92.50
45619;DHT22;31343;47.520;19.144;2023-03-14T00:58:56;8.20;92.10
45619;DHT22;31343;47.520;19.144;2023-03-14T01:01:23;8.20;91.70
45619;DHT22;31343;47.520;19.144;2023-03-14T01:03:52;8.20;91.50
45619;DHT22;31343;47.520;19.144;2023-03-14T01:06:21;8.30;91.60
45619;DHT22;31343;47.520;19.144;2023-03-14T01:08:47;8.20;91.40
45619;DHT22;31343;47.520;19.144;2023-03-14T01:11:17;8.20;91.40
45619;DHT22;31343;47.520;19.144;2023-03-14T01:13:43;8.30;91.40
45619;DHT22;31343;47.520;19.144;2023-03-14T01:16:10;8.20;91.60
45619;DHT22;31343;47.520;19.144;2023-03-14T01:18:38;8.30;92.40
45619;DHT22;31343;47.520;19.144;2023-03-14T01:21:13;8.20;91.80
45619;DHT22;31343;47.520;19.144;2023-03-14T01:23:40;8.20;92.00
45619;DHT22;31343;47.520;19.144;2023-03-14T01:26:12;8.10;92.00
45619;DHT22;31343;47.520;19.144;2023-03-14T01:28:38;8.00;92.10
45619;DHT22;31343;47.520;19.144;2023-03-14T01:31:06;8.20;92.00
45619;DHT22;31343;47.520;19.144;2023-03-14T01:33:33;8.10;92.60
45619;DHT22;31343;47.520;19.144;2023-03-14T01:35:58;8.10;92.30
45619;DHT22;31343;47.520;19.144;2023-03-14T01:38:24;8.10;92.20
45619;DHT22;31343;47.520;19.144;2023-03-14T01:40:50;8.20;92.10
45619;DHT22;31343;47.520;19.144;2023-03-14T01:43:18;8.10;92.20
45619;DHT22;31343;47.520;19.144;2023-03-14T01:48:36;8.00;92.40
45619;DHT22;31343;47.520;19.144;2023-03-14T01:51:06;8.00;92.80
45619;DHT22;31343;47.520;19.144;2023-03-14T01:53:34;8.00;92.70
45619;DHT22;31343;47.520;19.144;2023-03-14T01:56:00;8.00;92.80
45619;DHT22;31343;47.520;19.144;2023-03-14T01:58:27;7.90;93.00
45619;DHT22;31343;47.520;19.144;2023-03-14T02:00:57;7.90;92.90
45619;DHT22;31343;47.520;19.144;2023-03-14T02:03:25;7.90;92.80
45619;DHT22;31343;47.520;19.144;2023-03-14T02:05:54;8.00;92.90
45619;DHT22;31343;47.520;19.144;2023-03-14T02:08:22;7.90;93.00
45619;DHT22;31343;47.520;19.144;2023-03-14T02:10:50;7.80;93.10
45619;DHT22;31343;47.520;19.144;2023-03-14T02:13:20;7.70;93.20
45619;DHT22;31343;47.520;19.144;2023-03-14T02:15:47;7.70;93.30
45619;DHT22;31343;47.520;19.144;2023-03-14T02:18:14;7.70;93.40
45619;DHT22;31343;47.520;19.144;2023-03-14T02:20:57;7.60;93.70
45619;DHT22;31343;47.520;19.144;2023-03-14T02:26:34;7.60;93.80
45619;DHT22;31343;47.520;19.144;2023-03-14T02:29:02;7.60;93.80
45619;DHT22;31343;47.520;19.144;2023-03-14T02:31:28;7.60;93.80
45619;DHT22;31343;47.520;19.144;2023-03-14T02:33:55;7.60;94.00
45619;DHT22;31343;47.520;19.144;2023-03-14T02:36:23;7.60;94.40
45619;DHT22;31343;47.520;19.144;2023-03-14T02:39:00;7.60;94.80
45619;DHT22;31343;47.520;19.144;2023-03-14T02:41:26;7.50;94.70
45619;DHT22;31343;47.520;19.144;2023-03-14T02:43:53;7.30;94.60
45619;DHT22;31343;47.520;19.144;2023-03-14T02:46:21;7.30;94.80
45619;DHT22;31343;47.520;19.144;2023-03-14T02:48:56;7.30;95.00
45619;DHT22;31343;47.520;19.144;2023-03-14T02:51:24;7.30;95.20
45619;DHT22;31343;47.520;19.144;2023-03-14T02:53:51;7.20;95.30
45619;DHT22;31343;47.520;19.144;2023-03-14T02:56:17;7.30;95.50
45619;DHT22;31343;47.520;19.144;2023-03-14T02:58:42;7.20;95.50
45619;DHT22;31343;47.520;19.144;2023-03-14T03:01:08;7.30;95.60
45619;DHT22;31343;47.520;19.144;2023-03-14T03:03:34;7.30;95.70
45619;DHT22;31343;47.520;19.144;2023-03-14T03:06:00;7.30;96.30
45619;DHT22;31343;47.520;19.144;2023-03-14T03:08:27;7.30;96.10
45619;DHT22;31343;47.520;19.144;2023-03-14T03:10:53;7.40;96.30
45619;DHT22;31343;47.520;19.144;2023-03-14T03:13:19;7.50;95.90
45619;DHT22;31343;47.520;19.144;2023-03-14T03:15:45;7.60;95.90
45619;DHT22;31343;47.520;19.144;2023-03-14T03:18:11;7.60;96.00
45619;DHT22;31343;47.520;19.144;2023-03-14T03:20:37;7.50;96.30
45619;DHT22;31343;47.520;19.144;2023-03-14T03:23:03;7.60;96.10
45619;DHT22;31343;47.520;19.144;2023-03-14T03:25:28;7.70;96.30
45619;DHT22;31343;47.520;19.144;2023-03-14T03:27:54;7.70;96.20
45619;DHT22;31343;47.520;19.144;2023-03-14T03:30:20;7.80;96.10
45619;DHT22;31343;47.520;19.144;2023-03-14T03:32:46;7.90;96.20
45619;DHT22;31343;47.520;19.144;2023-03-14T03:35:12;8.00;96.20
45619;DHT22;31343;47.520;19.144;2023-03-14T03:37:38;8.00;95.90
45619;DHT22;31343;47.520;19.144;2023-03-14T03:40:05;8.00;95.90
45619;DHT22;31343;47.520;19.144;2023-03-14T03:42:33;8.10;96.00
45619;DHT22;31343;47.520;19.144;2023-03-14T03:44:59;8.10;96.10
45619;DHT22;31343;47.520;19.144;2023-03-14T03:47:25;8.10;96.10
45619;DHT22;31343;47.520;19.144;2023-03-14T03:49:51;8.10;96.10
45619;DHT22;31343;47.520;19.144;2023-03-14T03:52:17;8.10;96.00
45619;DHT22;31343;47.520;19.144;2023-03-14T03:54:43;8.00;97.00
45619;DHT22;31343;47.520;19.144;2023-03-14T03:57:08;8.10;96.70
45619;DHT22;31343;47.520;19.144;2023-03-14T03:59:34;8.00;96.60
45619;DHT22;31343;47.520;19.144;2023-03-14T04:02:00;7.90;97.10
45619;DHT22;31343;47.520;19.144;2023-03-14T04:04:26;7.80;97.50
45619;DHT22;31343;47.520;19.144;2023-03-14T04:06:51;7.70;97.50
45619;DHT22;31343;47.520;19.144;2023-03-14T04:09:17;7.60;97.40
45619;DHT22;31343;47.520;19.144;2023-03-14T04:11:43;7.70;97.60
45619;DHT22;31343;47.520;19.144;2023-03-14T04:14:09;7.60;97.80
45619;DHT22;31343;47.520;19.144;2023-03-14T04:16:35;7.70;97.30
45619;DHT22;31343;47.520;19.144;2023-03-14T04:19:02;7.70;97.20
45619;DHT22;31343;47.520;19.144;2023-03-14T04:21:27;7.80;97.10
45619;DHT22;31343;47.520;19.144;2023-03-14T04:23:53;7.80;97.20
45619;DHT22;31343;47.520;19.144;2023-03-14T04:26:19;7.70;97.20
45619;DHT22;31343;47.520;19.144;2023-03-14T04:28:45;7.80;97.20
45619;DHT22;31343;47.520;19.144;2023-03-14T04:31:17;7.90;97.10
45619;DHT22;31343;47.520;19.144;2023-03-14T04:33:44;8.00;96.80
45619;DHT22;31343;47.520;19.144;2023-03-14T04:36:10;8.00;97.40
45619;DHT22;31343;47.520;19.144;2023-03-14T04:38:36;8.00;97.20
45619;DHT22;31343;47.520;19.144;2023-03-14T04:41:02;8.00;97.50
45619;DHT22;31343;47.520;19.144;2023-03-14T04:43:29;7.90;97.60
45619;DHT22;31343;47.520;19.144;2023-03-14T04:45:56;8.00;97.30
45619;DHT22;31343;47.520;19.144;2023-03-14T04:48:22;8.00;97.10
45619;DHT22;31343;47.520;19.144;2023-03-14T04:50:48;8.10;96.80
45619;DHT22;31343;47.520;19.144;2023-03-14T04:53:16;8.20;96.40
45619;DHT22;31343;47.520;19.144;2023-03-14T04:55:41;8.30;96.40
45619;DHT22;31343;47.520;19.144;2023-03-14T04:58:07;8.30;96.20
45619;DHT22;31343;47.520;19.144;2023-03-14T05:00:33;8.40;96.00
45619;DHT22;31343;47.520;19.144;2023-03-14T05:02:59;8.40;95.90
45619;DHT22;31343;47.520;19.144;2023-03-14T05:05:25;8.40;96.60
45619;DHT22;31343;47.520;19.144;2023-03-14T05:07:51;8.40;96.80
45619;DHT22;31343;47.520;19.144;2023-03-14T05:10:16;8.30;96.90
45619;DHT22;31343;47.520;19.144;2023-03-14T05:12:42;8.30;97.20
45619;DHT22;31343;47.520;19.144;2023-03-14T05:15:08;8.30;96.10
45619;DHT22;31343;47.520;19.144;2023-03-14T05:17:35;8.50;95.80
45619;DHT22;31343;47.520;19.144;2023-03-14T05:20:01;8.50;95.70
45619;DHT22;31343;47.520;19.144;2023-03-14T05:22:27;8.60;95.50
45619;DHT22;31343;47.520;19.144;2023-03-14T05:24:52;8.60;95.50
45619;DHT22;31343;47.520;19.144;2023-03-14T05:27:22;8.60;95.30
45619;DHT22;31343;47.520;19.144;2023-03-14T05:29:48;8.70;95.30
45619;DHT22;31343;47.520;19.144;2023-03-14T05:32:14;8.70;95.00
45619;DHT22;31343;47.520;19.144;2023-03-14T05:34:39;8.70;95.00
45619;DHT22;31343;47.520;19.144;2023-03-14T05:37:05;8.80;94.80
45619;DHT22;31343;47.520;19.144;2023-03-14T05:39:31;8.90;94.40
45619;DHT22;31343;47.520;19.144;2023-03-14T05:41:59;9.00;94.20
45619;DHT22;31343;47.520;19.144;2023-03-14T05:44:25;9.30;93.90
45619;DHT22;31343;47.520;19.144;2023-03-14T05:46:51;9.50;93.40
45619;DHT22;31343;47.520;19.144;2023-03-14T05:49:16;9.60;93.00
45619;DHT22;31343;47.520;19.144;2023-03-14T05:51:42;9.80;93.00
45619;DHT22;31343;47.520;19.144;2023-03-14T05:54:08;9.80;92.80
45619;DHT22;31343;47.520;19.144;2023-03-14T05:56:34;9.90;93.00
45619;DHT22;31343;47.520;19.144;2023-03-14T05:59:00;10.20;92.60
45619;DHT22;31343;47.520;19.144;2023-03-14T06:01:27;10.80;91.70
45619;DHT22;31343;47.520;19.144;2023-03-14T06:03:54;11.30;90.70
45619;DHT22;31343;47.520;19.144;2023-03-14T06:06:20;11.80;90.00
45619;DHT22;31343;47.520;19.144;2023-03-14T06:08:46;12.20;88.60
45619;DHT22;31343;47.520;19.144;2023-03-14T06:11:12;12.00;88.20
45619;DHT22;31343;47.520;19.144;2023-03-14T06:13:37;12.40;87.20
45619;DHT22;31343;47.520;19.144;2023-03-14T06:16:03;12.80;86.10
45619;DHT22;31343;47.520;19.144;2023-03-14T06:18:29;13.10;84.60
45619;DHT22;31343;47.520;19.144;2023-03-14T06:20:56;13.20;83.40
45619;DHT22;31343;47.520;19.144;2023-03-14T06:23:22;13.00;84.00
45619;DHT22;31343;47.520;19.144;2023-03-14T06:25:48;13.60;82.30
45619;DHT22;31343;47.520;19.144;2023-03-14T06:28:14;13.60;81.60
45619;DHT22;31343;47.520;19.144;2023-03-14T06:30:40;14.10;81.10
45619;DHT22;31343;47.520;19.144;2023-03-14T06:33:05;14.60;80.20
45619;DHT22;31343;47.520;19.144;2023-03-14T06:35:31;13.20;81.50
45619;DHT22;31343;47.520;19.144;2023-03-14T06:37:57;12.70;83.20
45619;DHT22;31343;47.520;19.144;2023-03-14T06:40:23;12.50;83.90
45619;DHT22;31343;47.520;19.144;2023-03-14T06:42:49;12.30;85.50
45619;DHT22;31343;47.520;19.144;2023-03-14T06:45:15;12.10;85.60
45619;DHT22;31343;47.520;19.144;2023-03-14T06:47:41;12.10;86.00
45619;DHT22;31343;47.520;19.144;2023-03-14T06:50:08;11.80;86.80
45619;DHT22;31343;47.520;19.144;2023-03-14T06:52:34;11.80;86.40
45619;DHT22;31343;47.520;19.144;2023-03-14T06:55:00;11.90;87.20
45619;DHT22;31343;47.520;19.144;2023-03-14T06:57:25;12.00;86.70
45619;DHT22;31343;47.520;19.144;2023-03-14T06:59:51;12.00;86.60
45619;DHT22;31343;47.520;19.144;2023-03-14T07:02:17;11.80;87.00
45619;DHT22;31343;47.520;19.144;2023-03-14T07:04:43;11.60;87.80
45619;DHT22;31343;47.520;19.144;2023-03-14T07:07:08;11.60;88.20
45619;DHT22;31343;47.520;19.144;2023-03-14T07:09:35;11.60;88.50
45619;DHT22;31343;47.520;19.144;2023-03-14T07:12:01;11.70;88.00
45619;DHT22;31343;47.520;19.144;2023-03-14T07:14:27;11.60;88.40
45619;DHT22;31343;47.520;19.144;2023-03-14T07:16:53;11.70;88.70
45619;DHT22;31343;47.520;19.144;2023-03-14T07:19:18;11.90;88.70
45619;DHT22;31343;47.520;19.144;2023-03-14T07:21:44;12.10;88.00
45619;DHT22;31343;47.520;19.144;2023-03-14T07:24:10;12.20;87.50
45619;DHT22;31343;47.520;19.144;2023-03-14T07:26:35;12.30;87.30
45619;DHT22;31343;47.520;19.144;2023-03-14T07:29:01;12.40;87.60
45619;DHT22;31343;47.520;19.144;2023-03-14T07:31:29;12.30;87.50
45619;DHT22;31343;47.520;19.144;2023-03-14T07:33:56;12.20;87.80
45619;DHT22;31343;47.520;19.144;2023-03-14T07:36:21;12.60;87.90
45619;DHT22;31343;47.520;19.144;2023-03-14T07:38:47;13.20;86.00
45619;DHT22;31343;47.520;19.144;2023-03-14T07:41:13;13.40;86.00
45619;DHT22;31343;47.520;19.144;2023-03-14T07:43:39;13.60;84.90
45619;DHT22;31343;47.520;19.144;2023-03-14T07:46:05;13.40;85.70
45619;DHT22;31343;47.520;19.144;2023-03-14T07:48:31;13.30;86.00
45619;DHT22;31343;47.520;19.144;2023-03-14T07:50:57;13.50;85.70
45619;DHT22;31343;47.520;19.144;2023-03-14T07:53:24;13.40;85.50
45619;DHT22;31343;47.520;19.144;2023-03-14T07:55:54;13.00;86.40
45619;DHT22;31343;47.520;19.144;2023-03-14T07:58:20;13.00;87.10
45619;DHT22;31343;47.520;19.144;2023-03-14T08:00:47;13.00;87.30
45619;DHT22;31343;47.520;19.144;2023-03-14T08:03:13;13.20;87.20
45619;DHT22;31343;47.520;19.144;2023-03-14T08:05:39;13.30;86.60
45619;DHT22;31343;47.520;19.144;2023-03-14T08:08:06;13.40;86.60
45619;DHT22;31343;47.520;19.144;2023-03-14T08:10:31;13.80;86.40
45619;DHT22;31343;47.520;19.144;2023-03-14T08:12:59;14.10;85.10
45619;DHT22;31343;47.520;19.144;2023-03-14T08:15:27;14.10;84.90
45619;DHT22;31343;47.520;19.144;2023-03-14T08:17:53;14.20;85.10
45619;DHT22;31343;47.520;19.144;2023-03-14T08:20:24;14.40;85.00
45619;DHT22;31343;47.520;19.144;2023-03-14T08:22:50;14.40;84.70
45619;DHT22;31343;47.520;19.144;2023-03-14T08:25:16;14.50;84.40
45619;DHT22;31343;47.520;19.144;2023-03-14T08:27:42;14.60;84.60
45619;DHT22;31343;47.520;19.144;2023-03-14T08:30:11;15.00;84.80
45619;DHT22;31343;47.520;19.144;2023-03-14T08:32:37;15.30;83.40
45619;DHT22;31343;47.520;19.144;2023-03-14T08:35:04;15.30;83.10
45619;DHT22;31343;47.520;19.144;2023-03-14T08:37:34;15.30;83.70
45619;DHT22;31343;47.520;19.144;2023-03-14T08:40:00;15.60;82.60
45619;DHT22;31343;47.520;19.144;2023-03-14T08:42:26;15.90;82.30
45619;DHT22;31343;47.520;19.144;2023-03-14T08:44:52;15.90;81.70
45619;DHT22;31343;47.520;19.144;2023-03-14T08:47:18;16.00;81.90
45619;DHT22;31343;47.520;19.144;2023-03-14T08:49:44;16.00;80.90
45619;DHT22;31343;47.520;19.144;2023-03-14T08:52:10;15.80;81.80
45619;DHT22;31343;47.520;19.144;2023-03-14T08:54:35;15.60;82.10
45619;DHT22;31343;47.520;19.144;2023-03-14T08:57:01;15.60;81.50
45619;DHT22;31343;47.520;19.144;2023-03-14T08:59:27;15.60;80.90
45619;DHT22;31343;47.520;19.144;2023-03-14T09:01:53;15.90;81.10
45619;DHT22;31343;47.520;19.144;2023-03-14T09:04:20;16.10;80.20
45619;DHT22;31343;47.520;19.144;2023-03-14T09:06:45;16.30;79.50
45619;DHT22;31343;47.520;19.144;2023-03-14T09:09:11;16.30;79.50
45619;DHT22;31343;47.520;19.144;2023-03-14T09:11:39;16.30;79.60
45619;DHT22;31343;47.520;19.144;2023-03-14T09:14:04;16.40;79.70
45619;DHT22;31343;47.520;19.144;2023-03-14T09:16:30;16.60;80.00
45619;DHT22;31343;47.520;19.144;2023-03-14T09:18:56;16.70;78.90
45619;DHT22;31343;47.520;19.144;2023-03-14T09:21:26;16.60;78.70
45619;DHT22;31343;47.520;19.144;2023-03-14T09:23:52;16.40;79.30
45619;DHT22;31343;47.520;19.144;2023-03-14T09:26:18;16.40;80.00
45619;DHT22;31343;47.520;19.144;2023-03-14T09:28:44;16.70;79.40
45619;DHT22;31343;47.520;19.144;2023-03-14T09:31:11;16.70;78.60
45619;DHT22;31343;47.520;19.144;2023-03-14T09:33:37;16.50;79.60
45619;DHT22;31343;47.520;19.144;2023-03-14T09:36:04;16.60;79.60
45619;DHT22;31343;47.520;19.144;2023-03-14T09:38:31;16.60;79.00
45619;DHT22;31343;47.520;19.144;2023-03-14T09:41:00;16.50;79.40
45619;DHT22;31343;47.520;19.144;2023-03-14T09:43:29;16.60;79.20
45619;DHT22;31343;47.520;19.144;2023-03-14T09:45:57;16.70;80.00
45619;DHT22;31343;47.520;19.144;2023-03-14T09:48:30;16.80;79.70
45619;DHT22;31343;47.520;19.144;2023-03-14T09:50:59;17.10;79.50
45619;DHT22;31343;47.520;19.144;2023-03-14T09:53:39;17.10;79.10
45619;DHT22;31343;47.520;19.144;2023-03-14T09:56:12;17.30;79.10
45619;DHT22;31343;47.520;19.144;2023-03-14T09:58:41;17.50;78.50
45619;DHT22;31343;47.520;19.144;2023-03-14T10:01:11;17.40;78.60
45619;DHT22;31343;47.520;19.144;2023-03-14T10:03:39;17.50;78.60
45619;DHT22;31343;47.520;19.144;2023-03-14T10:06:12;17.70;79.70
45619;DHT22;31343;47.520;19.144;2023-03-14T10:08:43;17.90;78.60
45619;DHT22;31343;47.520;19.144;2023-03-14T10:11:16;18.00;78.40
45619;DHT22;31343;47.520;19.144;2023-03-14T10:14:03;18.00;78.00
45619;DHT22;31343;47.520;19.144;2023-03-14T10:16:43;18.00;77.90
45619;DHT22;31343;47.520;19.144;2023-03-14T10:19:12;18.10;78.00
45619;DHT22;31343;47.520;19.144;2023-03-14T10:21:50;17.90;78.60
45619;DHT22;31343;47.520;19.144;2023-03-14T10:26:43;18.20;78.30
45619;DHT22;31343;47.520;19.144;2023-03-14T10:29:12;18.20;77.70
45619;DHT22;31343;47.520;19.144;2023-03-14T10:32:03;18.50;77.70
45619;DHT22;31343;47.520;19.144;2023-03-14T10:34:37;18.50;77.30
45619;DHT22;31343;47.520;19.144;2023-03-14T10:37:24;18.50;76.70
45619;DHT22;31343;47.520;19.144;2023-03-14T10:40:02;18.70;77.00
45619;DHT22;31343;47.520;19.144;2023-03-14T10:42:33;18.80;76.90
45619;DHT22;31343;47.520;19.144;2023-03-14T10:45:04;19.00;76.10
45619;DHT22;31343;47.520;19.144;2023-03-14T10:47:33;19.10;75.20
45619;DHT22;31343;47.520;19.144;2023-03-14T10:50:29;19.00;75.10
45619;DHT22;31343;47.520;19.144;2023-03-14T10:52:56;18.70;75.60
45619;DHT22;31343;47.520;19.144;2023-03-14T10:55:24;18.70;75.60
45619;DHT22;31343;47.520;19.144;2023-03-14T10:57:51;18.70;75.80
45619;DHT22;31343;47.520;19.144;2023-03-14T11:00:19;18.70;76.00
45619;DHT22;31343;47.520;19.144;2023-03-14T11:03:10;19.00;76.20
45619;DHT22;31343;47.520;19.144;2023-03-14T11:05:59;19.30;75.70
45619;DHT22;31343;47.520;19.144;2023-03-14T11:11:23;19.90;72.40
45619;DHT22;31343;47.520;19.144;2023-03-14T11:16:56;19.90;71.30
45619;DHT22;31343;47.520;19.144;2023-03-14T11:24:59;19.80;73.60
45619;DHT22;31343;47.520;19.144;2023-03-14T11:27:50;20.00;72.30
45619;DHT22;31343;47.520;19.144;2023-03-14T11:30:35;20.70;70.80
45619;DHT22;31343;47.520;19.144;2023-03-14T11:33:08;20.90;70.10
45619;DHT22;31343;47.520;19.144;2023-03-14T11:35:55;20.90;70.20
45619;DHT22;31343;47.520;19.144;2023-03-14T11:38:48;20.80;69.60
45619;DHT22;31343;47.520;19.144;2023-03-14T11:41:22;21.00;69.90
45619;DHT22;31343;47.520;19.144;2023-03-14T11:43:55;21.40;69.00
45619;DHT22;31343;47.520;19.144;2023-03-14T11:46:28;21.40;68.50
45619;DHT22;31343;47.520;19.144;2023-03-14T11:51:34;20.90;68.70
45619;DHT22;31343;47.520;19.144;2023-03-14T11:57:02;21.40;68.20
45619;DHT22;31343;47.520;19.144;2023-03-14T11:59:45;20.80;69.30
45619;DHT22;31343;47.520;19.144;2023-03-14T12:08:18;20.30;70.10
45619;DHT22;31343;47.520;19.144;2023-03-14T12:10:23;20.30;71.00
45619;DHT22;31343;47.520;19.144;2023-03-14T12:12:49;20.70;70.60
45619;DHT22;31343;47.520;19.144;2023-03-14T12:15:21;21.00;69.90
45619;DHT22;31343;47.520;19.144;2023-03-14T12:17:53;20.80;69.70
45619;DHT22;31343;47.520;19.144;2023-03-14T12:20:25;20.70;69.80
45619;DHT22;31343;47.520;19.144;2023-03-14T12:22:55;20.80;68.80
45619;DHT22;31343;47.520;19.144;2023-03-14T12:25:24;21.00;69.20
45619;DHT22;31343;47.520;19.144;2023-03-14T12:30:29;21.40;67.80
45619;DHT22;31343;47.520;19.144;2023-03-14T12:35:36;20.40;69.20
45619;DHT22;31343;47.520;19.144;2023-03-14T12:38:12;20.30;69.70
45619;DHT22;31343;47.520;19.144;2023-03-14T12:43:30;20.10;70.80
45619;DHT22;31343;47.520;19.144;2023-03-14T12:46:24;20.10;70.60
45619;DHT22;31343;47.520;19.144;2023-03-14T12:51:45;20.00;69.60
45619;DHT22;31343;47.520;19.144;2023-03-14T12:59:45;19.90;70.60
45619;DHT22;31343;47.520;19.144;2023-03-14T13:02:22;19.90;70.80
45619;DHT22;31343;47.520;19.144;2023-03-14T13:05:10;19.90;70.60
45619;DHT22;31343;47.520;19.144;2023-03-14T13:12:54;19.90;71.40
45619;DHT22;31343;47.520;19.144;2023-03-14T13:15:38;19.80;71.20
45619;DHT22;31343;47.520;19.144;2023-03-14T13:18:41;19.60;71.40
45619;DHT22;31343;47.520;19.144;2023-03-14T13:23:37;19.50;72.40
45619;DHT22;31343;47.520;19.144;2023-03-14T13:26:05;19.50;71.90
45619;DHT22;31343;47.520;19.144;2023-03-14T13:28:32;19.50;72.10
45619;DHT22;31343;47.520;19.144;2023-03-14T13:31:04;19.50;71.90
45619;DHT22;31343;47.520;19.144;2023-03-14T13:33:30;19.50;71.60
45619;DHT22;31343;47.520;19.144;2023-03-14T13:36:04;19.40;71.20
45619;DHT22;31343;47.520;19.144;2023-03-14T13:38:36;19.40;71.20
45619;DHT22;31343;47.520;19.144;2023-03-14T13:41:06;19.40;71.40
45619;DHT22;31343;47.520;19.144;2023-03-14T13:43:38;19.30;71.70
45619;DHT22;31343;47.520;19.144;2023-03-14T13:46:14;19.40;71.90
45619;DHT22;31343;47.520;19.144;2023-03-14T13:48:47;19.30;71.20
45619;DHT22;31343;47.520;19.144;2023-03-14T13:51:15;19.30;71.10
45619;DHT22;31343;47.520;19.144;2023-03-14T13:53:44;19.30;71.50
45619;DHT22;31343;47.520;19.144;2023-03-14T13:56:11;19.30;71.60
45619;DHT22;31343;47.520;19.144;2023-03-14T13:58:38;19.40;71.30
45619;DHT22;31343;47.520;19.144;2023-03-14T14:01:26;19.40;71.40
45619;DHT22;31343;47.520;19.144;2023-03-14T14:03:56;19.30;70.90
45619;DHT22;31343;47.520;19.144;2023-03-14T14:06:37;19.30;70.90
45619;DHT22;31343;47.520;19.144;2023-03-14T14:09:14;19.30;71.30
45619;DHT22;31343;47.520;19.144;2023-03-14T14:11:45;19.40;71.40
45619;DHT22;31343;47.520;19.144;2023-03-14T14:14:17;19.40;70.80
45619;DHT22;31343;47.520;19.144;2023-03-14T14:16:45;19.40;71.10
45619;DHT22;31343;47.520;19.144;2023-03-14T14:19:12;19.30;71.50
45619;DHT22;31343;47.520;19.144;2023-03-14T14:21:39;19.30;71.40
45619;DHT22;31343;47.520;19.144;2023-03-14T14:24:05;19.30;71.50
45619;DHT22;31343;47.520;19.144;2023-03-14T14:26:31;19.30;71.50
45619;DHT22;31343;47.520;19.144;2023-03-14T14:29:05;19.20;71.60
45619;DHT22;31343;47.520;19.144;2023-03-14T14:31:31;19.30;71.40
45619;DHT22;31343;47.520;19.144;2023-03-14T14:34:01;19.30;72.00
45619;DHT22;31343;47.520;19.144;2023-03-14T14:36:37;19.30;71.90
45619;DHT22;31343;47.520;19.144;2023-03-14T14:39:23;19.30;72.30
45619;DHT22;31343;47.520;19.144;2023-03-14T14:41:50;19.20;72.60
45619;DHT22;31343;47.520;19.144;2023-03-14T14:44:21;19.20;72.30
45619;DHT22;31343;47.520;19.144;2023-03-14T14:46:55;19.10;72.40
45619;DHT22;31343;47.520;19.144;2023-03-14T14:49:20;19.10;73.00
45619;DHT22;31343;47.520;19.144;2023-03-14T14:51:50;19.10;73.30
45619;DHT22;31343;47.520;19.144;2023-03-14T14:54:18;19.10;73.30
45619;DHT22;31343;47.520;19.144;2023-03-14T14:56:50;19.10;73.30
45619;DHT22;31343;47.520;19.144;2023-03-14T14:59:25;18.90;73.10
45619;DHT22;31343;47.520;19.144;2023-03-14T15:01:58;18.80;73.30
45619;DHT22;31343;47.520;19.144;2023-03-14T15:04:25;18.70;73.70
45619;DHT22;31343;47.520;19.144;2023-03-14T15:06:51;18.70;73.80
45619;DHT22;31343;47.520;19.144;2023-03-14T15:09:18;18.60;73.10
45619;DHT22;31343;47.520;19.144;2023-03-14T15:11:46;18.50;73.40
45619;DHT22;31343;47.520;19.144;2023-03-14T15:14:12;18.50;73.00
45619;DHT22;31343;47.520;19.144;2023-03-14T15:16:38;18.50;73.50
45619;DHT22;31343;47.520;19.144;2023-03-14T15:19:20;18.50;73.40
45619;DHT22;31343;47.520;19.144;2023-03-14T15:21:46;18.40;73.70
45619;DHT22;31343;47.520;19.144;2023-03-14T15:24:12;18.40;74.00
45619;DHT22;31343;47.520;19.144;2023-03-14T15:26:38;18.40;74.20
45619;DHT22;31343;47.520;19.144;2023-03-14T15:29:04;18.30;74.30
45619;DHT22;31343;47.520;19.144;2023-03-14T15:31:34;18.30;73.90
45619;DHT22;31343;47.520;19.144;2023-03-14T15:34:02;18.20;73.90
45619;DHT22;31343;47.520;19.144;2023-03-14T15:36:31;18.20;74.50
45619;DHT22;31343;47.520;19.144;2023-03-14T15:38:58;18.20;74.90
45619;DHT22;31343;47.520;19.144;2023-03-14T15:41:25;18.20;74.80
45619;DHT22;31343;47.520;19.144;2023-03-14T15:43:51;18.20;74.70
45619;DHT22;31343;47.520;19.144;2023-03-14T15:46:18;18.10;74.30
45619;DHT22;31343;47.520;19.144;2023-03-14T15:48:44;18.00;74.60
45619;DHT22;31343;47.520;19.144;2023-03-14T15:51:11;18.00;74.80
45619;DHT22;31343;47.520;19.144;2023-03-14T15:53:37;17.90;74.90
45619;DHT22;31343;47.520;19.144;2023-03-14T15:56:07;17.90;75.00
45619;DHT22;31343;47.520;19.144;2023-03-14T15:58:36;17.90;75.10
45619;DHT22;31343;47.520;19.144;2023-03-14T16:01:06;17.90;75.20
45619;DHT22;31343;47.520;19.144;2023-03-14T16:03:34;17.90;75.20
45619;DHT22;31343;47.520;19.144;2023-03-14T16:06:00;17.90;76.00
45619;DHT22;31343;47.520;19.144;2023-03-14T16:08:26;17.70;82.80
45619;DHT22;31343;47.520;19.144;2023-03-14T16:10:54;17.70;85.30
45619;DHT22;31343;47.520;19.144;2023-03-14T16:13:20;17.60;89.20
45619;DHT22;31343;47.520;19.144;2023-03-14T16:15:57;17.40;91.00
45619;DHT22;31343;47.520;19.144;2023-03-14T16:18:23;17.20;92.30
45619;DHT22;31343;47.520;19.144;2023-03-14T16:21:01;16.90;93.90
45619;DHT22;31343;47.520;19.144;2023-03-14T16:23:27;16.70;95.10
45619;DHT22;31343;47.520;19.144;2023-03-14T16:25:54;16.50;96.30